createdAt,value
2017-07-04T00:00:43.864Z,0
2017-07-04T00:01:43.855Z,0
2017-07-04T00:02:43.845Z,0
2017-07-04T00:03:43.860Z,0
2017-07-04T00:04:43.857Z,0
2017-07-04T00:05:43.861Z,0
2017-07-04T00:06:43.872Z,0
2017-07-04T00:07:43.794Z,0
2017-07-04T00:08:43.877Z,0
2017-07-04T00:09:43.877Z,0
2017-07-04T00:10:43.873Z,0
2017-07-04T00:11:43.885Z,0
2017-07-04T00:12:43.820Z,0
2017-07-04T00:13:43.802Z,0
2017-07-04T00:14:43.880Z,0
2017-07-04T00:15:43.885Z,0
2017-07-04T00:16:43.879Z,0
2017-07-04T00:17:43.870Z,0
2017-07-04T00:18:43.882Z,0
2017-07-04T00:19:43.986Z,0
2017-07-04T00:20:43.872Z,0
2017-07-04T00:21:43.868Z,0
2017-07-04T00:22:43.874Z,0
2017-07-04T00:23:43.873Z,0
2017-07-04T00:24:43.870Z,0
2017-07-04T00:25:43.868Z,0
2017-07-04T00:26:43.873Z,0
2017-07-04T00:27:43.901Z,0
2017-07-04T00:28:43.824Z,0
2017-07-04T00:29:43.890Z,0
2017-07-04T00:30:43.888Z,0
2017-07-04T00:31:43.902Z,0
2017-07-04T00:32:43.824Z,0
2017-07-04T00:33:43.887Z,0
2017-07-04T00:34:43.889Z,0
2017-07-04T00:35:43.886Z,0
2017-07-04T00:36:43.898Z,0
2017-07-04T00:37:43.807Z,0
2017-07-04T00:38:43.895Z,0
2017-07-04T00:39:43.862Z,0
2017-07-04T00:40:43.894Z,0
2017-07-04T00:41:43.894Z,0
2017-07-04T00:42:43.812Z,0
2017-07-04T00:43:43.896Z,0
2017-07-04T00:44:43.886Z,0
2017-07-04T00:45:43.858Z,0
2017-07-04T00:46:43.815Z,0
2017-07-04T00:47:43.870Z,0
2017-07-04T00:48:43.869Z,0
2017-07-04T00:49:43.873Z,0
2017-07-04T00:50:43.873Z,0
2017-07-04T00:51:43.874Z,0
2017-07-04T00:52:43.874Z,0
2017-07-04T00:53:43.877Z,0
2017-07-04T00:54:43.874Z,0
2017-07-04T00:55:43.876Z,0
2017-07-04T00:56:43.873Z,0
2017-07-04T00:57:43.906Z,0
2017-07-04T00:58:43.913Z,0
2017-07-04T00:59:43.907Z,0
2017-07-04T01:00:43.819Z,0
2017-07-04T01:01:43.825Z,0
2017-07-04T01:02:43.875Z,0
2017-07-04T01:03:43.871Z,0
2017-07-04T01:04:43.907Z,0
2017-07-04T01:05:43.907Z,0
2017-07-04T01:06:43.906Z,0
2017-07-04T01:07:43.876Z,0
2017-07-04T01:08:43.831Z,0
2017-07-04T01:09:43.831Z,0
2017-07-04T01:10:43.897Z,0
2017-07-04T01:11:43.926Z,0
2017-07-04T01:12:43.880Z,0
2017-07-04T01:13:43.926Z,0
2017-07-04T01:14:43.881Z,0
2017-07-04T01:15:43.916Z,0
2017-07-04T01:16:43.923Z,0
2017-07-04T01:17:43.825Z,0
2017-07-04T01:18:43.919Z,0
2017-07-04T01:19:43.827Z,0
2017-07-04T01:20:43.924Z,0
2017-07-04T01:21:43.827Z,0
2017-07-04T01:22:43.923Z,0
2017-07-04T01:23:43.922Z,0
2017-07-04T01:24:43.924Z,0
2017-07-04T01:25:43.857Z,0
2017-07-04T01:26:43.874Z,0
2017-07-04T01:27:43.894Z,0
2017-07-04T01:28:43.894Z,0
2017-07-04T01:29:43.895Z,0
2017-07-04T01:30:43.980Z,0
2017-07-04T01:31:43.896Z,0
2017-07-04T01:32:43.896Z,0
2017-07-04T01:33:43.897Z,0
2017-07-04T01:34:43.899Z,0
2017-07-04T01:35:43.899Z,0
2017-07-04T01:36:43.899Z,0
2017-07-04T01:37:43.840Z,0
2017-07-04T01:38:43.933Z,0
2017-07-04T01:39:43.934Z,0
2017-07-04T01:40:43.849Z,0
2017-07-04T01:41:43.924Z,0
2017-07-04T01:42:43.863Z,0
2017-07-04T01:43:43.851Z,0
2017-07-04T01:44:43.937Z,0
2017-07-04T01:45:43.930Z,0
2017-07-04T01:46:43.855Z,0
2017-07-04T01:47:43.879Z,0
2017-07-04T01:48:43.889Z,0
2017-07-04T01:49:43.888Z,0
2017-07-04T01:50:43.876Z,0
2017-07-04T01:51:43.874Z,0
2017-07-04T01:52:43.894Z,0
2017-07-04T01:53:43.880Z,0
2017-07-04T01:54:43.880Z,0
2017-07-04T01:55:43.874Z,0
2017-07-04T01:56:43.878Z,0
2017-07-04T01:57:43.928Z,0
2017-07-04T01:58:43.837Z,0
2017-07-04T01:59:43.928Z,0
2017-07-04T02:00:43.927Z,0
2017-07-04T02:01:43.925Z,0
2017-07-04T02:02:43.927Z,0
2017-07-04T02:03:43.930Z,0
2017-07-04T02:04:44.029Z,0
2017-07-04T02:05:43.926Z,0
2017-07-04T02:06:43.923Z,0
2017-07-04T02:07:43.856Z,0
2017-07-04T02:08:43.867Z,0
2017-07-04T02:09:43.950Z,0
2017-07-04T02:10:43.929Z,0
2017-07-04T02:11:43.868Z,0
2017-07-04T02:12:43.949Z,0
2017-07-04T02:13:43.858Z,0
2017-07-04T02:14:43.954Z,0
2017-07-04T02:15:43.949Z,0
2017-07-04T02:16:43.958Z,0
2017-07-04T02:17:43.921Z,0
2017-07-04T02:18:43.925Z,4
2017-07-04T02:19:43.925Z,4
2017-07-04T02:20:43.918Z,4
2017-07-04T02:21:43.922Z,4
2017-07-04T02:22:43.923Z,0
2017-07-04T02:23:43.926Z,4
2017-07-04T02:24:43.927Z,4
2017-07-04T02:25:43.922Z,4
2017-07-04T02:26:43.926Z,4
2017-07-04T02:27:43.958Z,4
2017-07-04T02:28:43.944Z,8
2017-07-04T02:29:43.965Z,8
2017-07-04T02:30:43.966Z,8
2017-07-04T02:31:43.963Z,8
2017-07-04T02:32:43.940Z,12
2017-07-04T02:33:43.940Z,16
2017-07-04T02:34:43.877Z,16
2017-07-04T02:35:43.871Z,20
2017-07-04T02:36:43.959Z,20
2017-07-04T02:37:43.949Z,24
2017-07-04T02:38:43.859Z,24
2017-07-04T02:39:43.942Z,28
2017-07-04T02:40:43.972Z,36
2017-07-04T02:41:43.946Z,40
2017-07-04T02:42:43.951Z,44
2017-07-04T02:43:43.943Z,52
2017-07-04T02:44:43.947Z,60
2017-07-04T02:45:44.030Z,68
2017-07-04T02:46:43.973Z,76
2017-07-04T02:47:43.924Z,84
2017-07-04T02:48:43.926Z,100
2017-07-04T02:49:43.965Z,112
2017-07-04T02:50:43.969Z,124
2017-07-04T02:51:43.884Z,140
2017-07-04T02:52:43.964Z,160
2017-07-04T02:53:43.878Z,172
2017-07-04T02:54:43.976Z,196
2017-07-04T02:55:43.886Z,216
2017-07-04T02:56:43.968Z,236
2017-07-04T02:57:43.937Z,264
2017-07-04T02:58:43.890Z,288
2017-07-04T02:59:43.911Z,320
2017-07-04T03:00:43.943Z,352
2017-07-04T03:01:43.937Z,388
2017-07-04T03:02:43.991Z,432
2017-07-04T03:03:43.978Z,468
2017-07-04T03:04:43.968Z,516
2017-07-04T03:05:43.981Z,560
2017-07-04T03:06:44.024Z,608
2017-07-04T03:07:43.982Z,668
2017-07-04T03:08:43.982Z,728
2017-07-04T03:09:43.972Z,792
2017-07-04T03:10:43.973Z,864
2017-07-04T03:11:43.979Z,936
2017-07-04T03:12:43.976Z,1012
2017-07-04T03:13:43.899Z,1088
2017-07-04T03:14:43.905Z,1168
2017-07-04T03:15:43.914Z,1252
2017-07-04T03:16:43.953Z,1344
2017-07-04T03:17:43.983Z,1432
2017-07-04T03:18:43.982Z,1532
2017-07-04T03:19:43.977Z,1632
2017-07-04T03:20:43.991Z,1732
2017-07-04T03:21:43.965Z,1832
2017-07-04T03:22:43.904Z,1928
2017-07-04T03:23:43.981Z,2036
2017-07-04T03:24:43.986Z,2144
2017-07-04T03:25:43.919Z,2264
2017-07-04T03:26:43.980Z,2380
2017-07-04T03:27:43.995Z,2496
2017-07-04T03:28:43.982Z,2612
2017-07-04T03:29:43.988Z,2736
2017-07-04T03:30:43.913Z,2864
2017-07-04T03:31:43.968Z,2992
2017-07-04T03:32:43.911Z,3124
2017-07-04T03:33:43.908Z,3252
2017-07-04T03:34:43.991Z,3384
2017-07-04T03:35:43.951Z,3520
2017-07-04T03:36:43.953Z,3668
2017-07-04T03:37:43.953Z,3808
2017-07-04T03:38:43.979Z,3948
2017-07-04T03:39:43.979Z,4080
2017-07-04T03:40:43.976Z,4216
2017-07-04T03:41:43.999Z,4340
2017-07-04T03:42:43.982Z,4456
2017-07-04T03:43:43.980Z,4588
2017-07-04T03:44:43.981Z,4748
2017-07-04T03:45:43.975Z,4920
2017-07-04T03:46:43.980Z,5044
2017-07-04T03:47:43.977Z,5164
2017-07-04T03:48:43.980Z,5280
2017-07-04T03:49:43.983Z,5404
2017-07-04T03:50:43.985Z,5512
2017-07-04T03:51:43.980Z,5624
2017-07-04T03:52:43.983Z,5732
2017-07-04T03:53:43.990Z,5852
2017-07-04T03:54:43.984Z,6024
2017-07-04T03:55:43.986Z,6168
2017-07-04T03:56:43.984Z,6296
2017-07-04T03:57:43.991Z,6476
2017-07-04T03:58:44.005Z,6620
2017-07-04T03:59:44.013Z,6748
2017-07-04T04:00:43.924Z,6888
2017-07-04T04:01:44.005Z,6996
2017-07-04T04:02:43.919Z,7088
2017-07-04T04:03:44.012Z,7184
2017-07-04T04:04:44.005Z,7340
2017-07-04T04:05:43.925Z,7508
2017-07-04T04:06:43.984Z,7668
2017-07-04T04:07:43.970Z,7860
2017-07-04T04:08:44.004Z,8024
2017-07-04T04:09:44.003Z,8104
2017-07-04T04:10:44.023Z,8136
2017-07-04T04:11:44.016Z,8224
2017-07-04T04:12:44.007Z,8296
2017-07-04T04:13:44.020Z,8380
2017-07-04T04:14:43.925Z,8320
2017-07-04T04:15:43.973Z,8216
2017-07-04T04:16:43.926Z,8128
2017-07-04T04:17:43.975Z,8092
2017-07-04T04:18:43.997Z,8196
2017-07-04T04:19:43.998Z,8296
2017-07-04T04:20:43.997Z,8404
2017-07-04T04:21:43.916Z,8560
2017-07-04T04:22:43.999Z,8812
2017-07-04T04:23:44.000Z,9156
2017-07-04T04:24:43.999Z,9588
2017-07-04T04:25:44.034Z,9832
2017-07-04T04:26:44.001Z,10092
2017-07-04T04:27:44.004Z,10244
2017-07-04T04:28:44.025Z,10340
2017-07-04T04:29:44.010Z,10472
2017-07-04T04:30:44.033Z,10496
2017-07-04T04:31:44.015Z,10608
2017-07-04T04:32:44.005Z,10764
2017-07-04T04:33:44.024Z,10912
2017-07-04T04:34:44.031Z,11068
2017-07-04T04:35:44.032Z,11196
2017-07-04T04:36:43.943Z,11240
2017-07-04T04:37:43.936Z,11276
2017-07-04T04:38:44.001Z,11384
2017-07-04T04:39:43.912Z,11560
2017-07-04T04:40:43.891Z,11676
2017-07-04T04:41:43.888Z,11804
2017-07-04T04:42:43.916Z,12084
2017-07-04T04:43:44.009Z,12504
2017-07-04T04:44:43.954Z,12628
2017-07-04T04:45:43.939Z,12452
2017-07-04T04:46:43.896Z,12132
2017-07-04T04:47:43.923Z,12208
2017-07-04T04:48:44.038Z,12212
2017-07-04T04:49:44.030Z,12180
2017-07-04T04:50:44.032Z,12636
2017-07-04T04:51:43.958Z,12916
2017-07-04T04:52:44.037Z,13128
2017-07-04T04:53:44.049Z,13436
2017-07-04T04:54:43.994Z,13892
2017-07-04T04:55:44.037Z,14488
2017-07-04T04:56:44.037Z,14880
2017-07-04T04:58:44.023Z,15484
2017-07-04T04:59:44.038Z,15596
2017-07-04T05:00:44.043Z,15752
2017-07-04T05:01:43.973Z,16100
2017-07-04T05:02:44.040Z,16488
2017-07-04T05:03:44.053Z,16608
2017-07-04T05:04:44.036Z,17032
2017-07-04T05:05:43.960Z,17440
2017-07-04T05:06:44.040Z,17784
2017-07-04T05:07:44.025Z,18292
2017-07-04T05:08:44.013Z,18444
2017-07-04T05:09:44.012Z,18556
2017-07-04T05:10:44.017Z,19160
2017-07-04T05:11:44.013Z,20372
2017-07-04T05:12:44.014Z,20820
2017-07-04T05:13:44.014Z,20412
2017-07-04T05:14:44.010Z,19952
2017-07-04T05:15:44.015Z,19448
2017-07-04T05:16:44.019Z,19464
2017-07-04T05:17:44.021Z,18924
2017-07-04T05:18:44.050Z,17744
2017-07-04T05:19:44.057Z,16940
2017-07-04T05:20:43.962Z,17416
2017-07-04T05:21:44.050Z,18616
2017-07-04T05:22:44.047Z,19284
2017-07-04T05:23:44.031Z,18988
2017-07-04T05:24:43.967Z,18300
2017-07-04T05:25:43.971Z,18772
2017-07-04T05:26:44.052Z,19428
2017-07-04T05:27:44.053Z,19908
2017-07-04T05:28:44.035Z,20292
2017-07-04T05:29:44.040Z,20640
2017-07-04T05:30:44.069Z,20956
2017-07-04T05:31:44.041Z,21552
2017-07-04T05:32:44.038Z,22144
2017-07-04T05:33:44.043Z,22176
2017-07-04T05:34:44.041Z,21664
2017-07-04T05:35:44.049Z,22240
2017-07-04T05:36:44.042Z,22912
2017-07-04T05:37:44.047Z,21540
2017-07-04T05:38:44.048Z,21608
2017-07-04T05:39:44.062Z,22240
2017-07-04T05:40:44.027Z,22560
2017-07-04T05:41:43.981Z,22752
2017-07-04T05:42:44.075Z,22624
2017-07-04T05:43:44.065Z,22400
2017-07-04T05:44:43.983Z,22752
2017-07-04T05:45:44.077Z,23232
2017-07-04T05:46:44.070Z,23936
2017-07-04T05:47:44.066Z,26464
2017-07-04T05:48:44.052Z,35872
2017-07-04T05:49:44.052Z,39296
2017-07-04T05:50:44.054Z,36096
2017-07-04T05:51:44.050Z,39744
2017-07-04T05:52:44.062Z,40288
2017-07-04T05:53:44.048Z,43648
2017-07-04T05:54:44.058Z,40960
2017-07-04T05:55:44.051Z,48704
2017-07-04T05:56:44.051Z,41312
2017-07-04T05:57:44.051Z,43744
2017-07-04T05:58:44.077Z,39200
2017-07-04T05:59:44.071Z,42144
2017-07-04T06:00:43.987Z,50560
2017-07-04T06:01:44.075Z,49888
2017-07-04T06:02:44.033Z,43168
2017-07-04T06:03:44.080Z,37056
2017-07-04T06:04:43.999Z,33984
2017-07-04T06:05:43.994Z,36736
2017-07-04T06:06:44.057Z,28480
2017-07-04T06:07:44.077Z,26240
2017-07-04T06:08:44.080Z,25920
2017-07-04T06:09:43.989Z,27712
2017-07-04T06:10:44.084Z,33376
2017-07-04T06:11:44.083Z,33664
2017-07-04T06:12:44.077Z,43360
2017-07-04T06:13:44.041Z,43232
2017-07-04T06:14:43.990Z,51552
2017-07-04T06:15:43.999Z,53536
2017-07-04T06:16:44.082Z,58592
2017-07-04T06:17:44.089Z,50144
2017-07-04T06:18:44.061Z,37920
2017-07-04T06:19:44.089Z,27392
2017-07-04T06:20:44.001Z,23136
2017-07-04T06:21:44.090Z,21440
2017-07-04T06:22:44.096Z,20320
2017-07-04T06:23:44.097Z,19732
2017-07-04T06:24:44.005Z,20512
2017-07-04T06:25:44.092Z,20448
2017-07-04T06:26:44.085Z,17872
2017-07-04T06:27:44.088Z,16180
2017-07-04T06:28:44.087Z,15780
2017-07-04T06:29:44.085Z,16328
2017-07-04T06:30:44.048Z,18668
2017-07-04T06:31:44.089Z,21248
2017-07-04T06:32:44.005Z,22016
2017-07-04T06:33:44.091Z,22720
2017-07-04T06:34:44.071Z,26496
2017-07-04T06:35:44.090Z,32672
2017-07-04T06:36:44.093Z,41856
2017-07-04T06:37:44.036Z,52192
2017-07-04T06:38:44.001Z,48352
2017-07-04T06:39:44.039Z,52064
2017-07-04T06:40:44.001Z,35648
2017-07-04T06:41:44.033Z,27584
2017-07-04T06:42:44.037Z,20704
2017-07-04T06:43:44.000Z,18576
2017-07-04T06:44:43.990Z,20672
2017-07-04T06:45:44.045Z,24800
2017-07-04T06:46:43.999Z,28096
2017-07-04T06:47:44.053Z,27008
2017-07-04T06:48:44.084Z,27072
2017-07-04T06:49:44.085Z,30688
2017-07-04T06:50:44.083Z,27840
2017-07-04T06:51:44.084Z,27904
2017-07-04T06:52:44.082Z,23680
2017-07-04T06:53:44.084Z,21920
2017-07-04T06:54:44.085Z,23648
2017-07-04T06:55:44.098Z,26976
2017-07-04T06:56:44.083Z,28192
2017-07-04T06:57:44.087Z,28704
2017-07-04T06:58:44.013Z,28640
2017-07-04T06:59:44.110Z,27488
2017-07-04T07:00:44.017Z,28096
2017-07-04T07:01:44.107Z,28640
2017-07-04T07:02:44.029Z,28832
2017-07-04T07:03:44.088Z,29664
2017-07-04T07:04:44.086Z,32384
2017-07-04T07:05:44.105Z,32928
2017-07-04T07:06:44.087Z,35200
2017-07-04T07:07:44.108Z,39232
2017-07-04T07:08:44.069Z,35840
2017-07-04T07:09:44.079Z,34144
2017-07-04T07:10:44.083Z,37792
2017-07-04T07:11:44.081Z,41408
2017-07-04T07:12:44.085Z,39360
2017-07-04T07:13:44.081Z,36640
2017-07-04T07:14:44.109Z,36416
2017-07-04T07:15:44.086Z,37504
2017-07-04T07:16:44.087Z,36864
2017-07-04T07:17:44.094Z,33888
2017-07-04T07:18:44.117Z,33056
2017-07-04T07:19:44.119Z,32448
2017-07-04T07:20:44.115Z,31008
2017-07-04T07:21:44.036Z,30688
2017-07-04T07:22:44.128Z,33184
2017-07-04T07:23:44.128Z,35648
2017-07-04T07:24:44.140Z,38912
2017-07-04T07:25:44.081Z,41856
2017-07-04T07:26:44.130Z,42368
2017-07-04T07:27:44.055Z,42784
2017-07-04T07:28:44.034Z,40384
2017-07-04T07:29:44.107Z,42112
2017-07-04T07:30:44.105Z,42208
2017-07-04T07:31:44.105Z,42144
2017-07-04T07:32:44.110Z,41344
2017-07-04T07:33:44.108Z,40000
2017-07-04T07:34:44.115Z,46080
2017-07-04T07:35:44.104Z,62112
2017-07-04T07:36:44.119Z,59136
2017-07-04T07:37:44.108Z,52768
2017-07-04T07:38:44.120Z,53280
2017-07-04T07:39:44.125Z,96128
2017-07-04T07:40:44.072Z,97600
2017-07-04T07:41:44.046Z,89024
2017-07-04T07:42:44.130Z,80000
2017-07-04T07:43:44.139Z,70080
2017-07-04T07:44:44.119Z,73408
2017-07-04T07:45:44.129Z,59392
2017-07-04T07:46:44.106Z,77984
2017-07-04T07:47:44.046Z,74080
2017-07-04T07:48:44.131Z,94752
2017-07-04T07:49:44.003Z,84000
2017-07-04T07:50:44.091Z,75488
2017-07-04T07:51:44.102Z,70592
2017-07-04T07:52:44.106Z,56416
2017-07-04T07:53:44.033Z,52064
2017-07-04T07:54:44.013Z,51296
2017-07-04T07:55:44.014Z,49600
2017-07-04T07:56:44.026Z,51648
2017-07-04T07:57:44.018Z,54656
2017-07-04T07:58:44.106Z,56704
2017-07-04T07:59:44.144Z,63552
2017-07-04T08:00:44.142Z,58624
2017-07-04T08:01:44.162Z,62464
2017-07-04T08:02:44.125Z,66112
2017-07-04T08:03:44.063Z,60864
2017-07-04T08:04:44.145Z,65024
2017-07-04T08:05:44.141Z,68384
2017-07-04T08:06:44.124Z,65824
2017-07-04T08:07:44.123Z,67872
2017-07-04T08:08:44.156Z,67040
2017-07-04T08:09:44.052Z,71136
2017-07-04T08:10:44.066Z,72896
2017-07-04T08:11:44.128Z,73568
2017-07-04T08:12:44.144Z,67840
2017-07-04T08:13:44.146Z,65184
2017-07-04T08:14:44.066Z,71136
2017-07-04T08:15:44.148Z,111392
2017-07-04T08:16:44.147Z,73664
2017-07-04T08:17:44.169Z,77408
2017-07-04T08:18:44.110Z,82656
2017-07-04T08:19:44.121Z,75264
2017-07-04T08:20:44.118Z,81280
2017-07-04T08:21:44.119Z,68352
2017-07-04T08:22:44.103Z,55040
2017-07-04T08:23:44.116Z,51136
2017-07-04T08:24:44.122Z,53952
2017-07-04T08:25:44.120Z,57728
2017-07-04T08:26:44.122Z,59904
2017-07-04T08:27:44.123Z,61472
2017-07-04T08:28:44.122Z,64256
2017-07-04T08:29:44.139Z,75744
2017-07-04T08:30:44.139Z,60704
2017-07-04T08:31:44.137Z,62592
2017-07-04T08:32:44.138Z,67808
2017-07-04T08:33:44.148Z,66464
2017-07-04T08:34:44.246Z,55616
2017-07-04T08:35:44.139Z,51232
2017-07-04T08:36:44.147Z,48448
2017-07-04T08:37:44.149Z,44928
2017-07-04T08:38:44.144Z,43040
2017-07-04T08:39:44.164Z,43360
2017-07-04T08:40:44.275Z,45280
2017-07-04T08:41:44.082Z,43840
2017-07-04T08:42:44.158Z,38784
2017-07-04T08:43:44.171Z,35488
2017-07-04T08:44:44.122Z,35680
2017-07-04T08:45:44.146Z,37184
2017-07-04T08:46:44.081Z,39168
2017-07-04T08:47:44.178Z,41920
2017-07-04T08:48:44.147Z,46720
2017-07-04T08:49:44.137Z,57376
2017-07-04T08:50:44.134Z,68352
2017-07-04T08:51:44.136Z,74848
2017-07-04T08:52:44.137Z,78176
2017-07-04T08:53:44.144Z,75488
2017-07-04T08:54:44.139Z,74336
2017-07-04T08:55:44.144Z,71552
2017-07-04T08:56:44.140Z,72416
2017-07-04T08:57:44.146Z,75584
2017-07-04T08:58:44.140Z,84096
2017-07-04T08:59:44.170Z,78624
2017-07-04T09:00:44.177Z,94016
2017-07-04T09:01:44.251Z,85952
2017-07-04T09:02:44.164Z,78688
2017-07-04T09:03:44.153Z,73472
2017-07-04T09:04:44.169Z,71584
2017-07-04T09:05:44.093Z,69632
2017-07-04T09:06:44.177Z,68608
2017-07-04T09:07:44.175Z,67520
2017-07-04T09:08:44.186Z,58016
2017-07-04T09:09:44.083Z,60096
2017-07-04T09:10:44.132Z,58816
2017-07-04T09:11:44.083Z,59392
2017-07-04T09:12:44.120Z,60576
2017-07-04T09:13:44.059Z,65856
2017-07-04T09:14:44.067Z,95872
2017-07-04T09:15:44.081Z,122144
2017-07-04T09:16:44.168Z,106336
2017-07-04T09:17:44.189Z,66112
2017-07-04T09:18:44.168Z,78464
2017-07-04T09:19:44.154Z,139840
2017-07-04T09:20:44.158Z,142624
2017-07-04T09:21:44.153Z,141248
2017-07-04T09:22:44.156Z,144992
2017-07-04T09:23:44.150Z,135104
2017-07-04T09:24:44.157Z,132736
2017-07-04T09:25:44.156Z,68256
2017-07-04T09:26:44.156Z,62816
2017-07-04T09:27:44.153Z,118432
2017-07-04T09:28:44.158Z,128640
2017-07-04T09:29:44.158Z,130560
2017-07-04T09:30:44.160Z,126112
2017-07-04T09:31:44.161Z,77440
2017-07-04T09:32:44.158Z,78080
2017-07-04T09:33:44.166Z,106560
2017-07-04T09:34:44.163Z,130784
2017-07-04T09:35:44.161Z,82464
2017-07-04T09:36:44.160Z,100000
2017-07-04T09:37:44.160Z,95168
2017-07-04T09:38:44.163Z,71936
2017-07-04T09:39:44.159Z,70208
2017-07-04T09:40:44.164Z,64864
2017-07-04T09:41:44.160Z,66272
2017-07-04T09:42:44.166Z,69376
2017-07-04T09:43:44.160Z,64512
2017-07-04T09:44:44.162Z,62272
2017-07-04T09:45:44.163Z,65440
2017-07-04T09:46:44.166Z,62912
2017-07-04T09:47:44.163Z,58720
2017-07-04T09:48:44.170Z,66560
2017-07-04T09:49:44.195Z,57248
2017-07-04T09:50:44.116Z,61056
2017-07-04T09:51:44.197Z,158336
2017-07-04T09:52:44.195Z,85216
2017-07-04T09:53:44.201Z,131328
2017-07-04T09:54:44.105Z,58080
2017-07-04T09:55:44.203Z,143296
2017-07-04T09:56:44.208Z,154208
2017-07-04T09:57:44.213Z,75008
2017-07-04T09:58:44.206Z,77536
2017-07-04T09:59:44.113Z,162720
2017-07-04T10:00:44.213Z,121216
2017-07-04T10:01:44.202Z,164224
2017-07-04T10:02:44.164Z,64256
2017-07-04T10:03:44.123Z,62880
2017-07-04T10:04:44.122Z,57408
2017-07-04T10:05:44.215Z,53728
2017-07-04T10:06:44.118Z,62272
2017-07-04T10:07:44.203Z,60576
2017-07-04T10:08:44.121Z,61152
2017-07-04T10:09:44.250Z,65632
2017-07-04T10:10:44.218Z,60000
2017-07-04T10:11:44.132Z,55872
2017-07-04T10:12:44.124Z,55872
2017-07-04T10:13:44.183Z,57888
2017-07-04T10:14:44.130Z,48512
2017-07-04T10:15:44.216Z,41056
2017-07-04T10:16:44.221Z,36800
2017-07-04T10:17:44.278Z,40576
2017-07-04T10:18:44.219Z,48736
2017-07-04T10:19:44.195Z,62080
2017-07-04T10:20:44.139Z,145248
2017-07-04T10:21:44.135Z,65760
2017-07-04T10:22:44.210Z,71200
2017-07-04T10:23:44.199Z,119616
2017-07-04T10:24:44.198Z,129408
2017-07-04T10:25:44.214Z,74400
2017-07-04T10:26:44.218Z,66464
2017-07-04T10:27:44.223Z,77248
2017-07-04T10:28:44.220Z,64032
2017-07-04T10:29:44.187Z,96896
2017-07-04T10:30:44.192Z,56192
2017-07-04T10:31:44.188Z,53184
2017-07-04T10:32:44.192Z,62656
2017-07-04T10:33:44.194Z,60384
2017-07-04T10:34:44.197Z,47776
2017-07-04T10:35:44.194Z,52160
2017-07-04T10:36:44.192Z,61760
2017-07-04T10:37:44.194Z,123072
2017-07-04T10:38:44.201Z,72704
2017-07-04T10:39:44.194Z,97472
2017-07-04T10:40:44.196Z,51840
2017-07-04T10:41:44.198Z,53472
2017-07-04T10:42:44.198Z,57760
2017-07-04T10:43:44.196Z,73184
2017-07-04T10:44:44.197Z,74528
2017-07-04T10:45:44.201Z,60448
2017-07-04T10:46:44.197Z,168544
2017-07-04T10:47:44.200Z,59200
2017-07-04T10:48:44.200Z,46048
2017-07-04T10:49:44.200Z,46528
2017-07-04T10:50:44.153Z,55360
2017-07-04T10:51:44.154Z,47072
2017-07-04T10:52:44.230Z,53472
2017-07-04T10:53:44.230Z,64000
2017-07-04T10:54:44.151Z,55232
2017-07-04T10:55:44.227Z,56448
2017-07-04T10:56:44.235Z,56160
2017-07-04T10:57:44.178Z,145856
2017-07-04T10:58:44.242Z,151712
2017-07-04T10:59:44.231Z,55808
2017-07-04T11:00:44.243Z,142048
2017-07-04T11:01:44.239Z,44864
2017-07-04T11:02:44.243Z,41184
2017-07-04T11:03:44.180Z,85568
2017-07-04T11:04:44.190Z,109952
2017-07-04T11:05:44.215Z,63488
2017-07-04T11:06:44.246Z,67360
2017-07-04T11:07:44.223Z,64672
2017-07-04T11:08:44.235Z,87808
2017-07-04T11:09:44.163Z,152480
2017-07-04T11:10:44.165Z,139808
2017-07-04T11:11:44.155Z,67648
2017-07-04T11:12:44.249Z,131648
2017-07-04T11:13:44.190Z,166656
2017-07-04T11:14:44.157Z,156832
2017-07-04T11:15:44.253Z,121952
2017-07-04T11:16:44.157Z,136096
2017-07-04T11:17:44.168Z,143040
2017-07-04T11:18:44.168Z,71328
2017-07-04T11:19:44.159Z,80608
2017-07-04T11:20:44.226Z,145600
2017-07-04T11:21:44.265Z,136512
2017-07-04T11:22:44.161Z,148064
2017-07-04T11:23:44.163Z,156832
2017-07-04T11:24:44.231Z,153088
2017-07-04T11:25:44.258Z,151840
2017-07-04T11:26:44.172Z,153600
2017-07-04T11:27:44.211Z,148320
2017-07-04T11:28:44.161Z,145760
2017-07-04T11:29:44.164Z,147072
2017-07-04T11:30:44.262Z,75872
2017-07-04T11:31:44.178Z,160192
2017-07-04T11:32:44.251Z,158784
2017-07-04T11:33:44.263Z,76000
2017-07-04T11:34:44.260Z,159072
2017-07-04T11:35:44.177Z,160448
2017-07-04T11:36:44.265Z,153760
2017-07-04T11:37:44.262Z,58272
2017-07-04T11:38:44.174Z,52640
2017-07-04T11:39:44.201Z,52512
2017-07-04T11:40:44.175Z,58432
2017-07-04T11:41:44.264Z,50048
2017-07-04T11:42:44.176Z,52672
2017-07-04T11:43:44.264Z,46784
2017-07-04T11:44:44.172Z,44192
2017-07-04T11:45:44.238Z,49024
2017-07-04T11:46:44.259Z,57504
2017-07-04T11:47:44.265Z,80768
2017-07-04T11:48:44.178Z,151200
2017-07-04T11:49:44.186Z,150464
2017-07-04T11:50:44.220Z,141472
2017-07-04T11:51:44.263Z,141248
2017-07-04T11:52:44.180Z,137056
2017-07-04T11:53:44.265Z,138848
2017-07-04T11:54:44.269Z,142464
2017-07-04T11:55:44.273Z,153632
2017-07-04T11:56:44.264Z,166688
2017-07-04T11:57:44.270Z,172256
2017-07-04T11:58:44.275Z,87744
2017-07-04T11:59:44.276Z,90432
2017-07-04T12:00:44.254Z,164736
2017-07-04T12:01:44.253Z,162048
2017-07-04T12:02:44.250Z,152064
2017-07-04T12:03:44.253Z,132288
2017-07-04T12:04:44.252Z,141024
2017-07-04T12:05:44.257Z,154112
2017-07-04T12:06:44.254Z,159712
2017-07-04T12:07:44.252Z,165344
2017-07-04T12:08:44.252Z,167264
2017-07-04T12:09:44.255Z,160160
2017-07-04T12:10:44.259Z,155584
2017-07-04T12:11:44.260Z,164576
2017-07-04T12:12:44.300Z,160448
2017-07-04T12:13:44.259Z,161248
2017-07-04T12:14:44.269Z,129280
2017-07-04T12:15:44.259Z,129472
2017-07-04T12:16:44.262Z,109152
2017-07-04T12:17:44.183Z,56608
2017-07-04T12:18:44.265Z,54784
2017-07-04T12:19:44.266Z,55904
2017-07-04T12:20:44.251Z,106176
2017-07-04T12:21:44.253Z,53984
2017-07-04T12:22:44.251Z,62400
2017-07-04T12:23:44.255Z,159392
2017-07-04T12:24:44.253Z,158016
2017-07-04T12:25:44.258Z,155872
2017-07-04T12:26:44.255Z,91616
2017-07-04T12:27:44.255Z,75872
2017-07-04T12:28:44.256Z,55680
2017-07-04T12:29:44.257Z,72256
2017-07-04T12:30:44.272Z,106688
2017-07-04T12:31:44.282Z,152032
2017-07-04T12:32:44.282Z,146080
2017-07-04T12:33:44.291Z,138560
2017-07-04T12:34:44.283Z,136992
2017-07-04T12:35:44.291Z,142816
2017-07-04T12:36:44.216Z,140160
2017-07-04T12:37:44.298Z,139872
2017-07-04T12:38:44.215Z,151200
2017-07-04T12:39:44.299Z,146496
2017-07-04T12:40:44.276Z,110400
2017-07-04T12:41:44.278Z,147744
2017-07-04T12:42:44.297Z,149152
2017-07-04T12:43:44.275Z,66528
2017-07-04T12:44:44.277Z,59296
2017-07-04T12:45:44.280Z,56096
2017-07-04T12:46:44.281Z,115680
2017-07-04T12:47:44.280Z,154560
2017-07-04T12:48:44.294Z,167456
2017-07-04T12:49:44.281Z,166816
2017-07-04T12:50:44.282Z,167232
2017-07-04T12:51:44.284Z,162144
2017-07-04T12:52:44.285Z,159648
2017-07-04T12:53:44.281Z,159936
2017-07-04T12:54:44.283Z,158976
2017-07-04T12:55:44.284Z,161888
2017-07-04T12:56:44.284Z,141536
2017-07-04T12:57:44.286Z,156608
2017-07-04T12:58:44.282Z,140288
2017-07-04T12:59:44.284Z,153952
2017-07-04T13:00:44.226Z,140032
2017-07-04T13:01:44.308Z,128256
2017-07-04T13:02:44.265Z,75200
2017-07-04T13:03:44.221Z,125056
2017-07-04T13:04:44.311Z,150272
2017-07-04T13:05:44.312Z,170080
2017-07-04T13:06:44.286Z,169856
2017-07-04T13:07:44.225Z,170976
2017-07-04T13:08:44.231Z,162464
2017-07-04T13:09:44.314Z,83296
2017-07-04T13:10:44.305Z,64096
2017-07-04T13:11:44.311Z,59328
2017-07-04T13:12:44.314Z,77248
2017-07-04T13:13:44.229Z,99136
2017-07-04T13:14:44.280Z,58240